Time;durP1;ratioP1;P1;durP2;ratioP2;P2;SDS_P1;SDS_P2;PMS_P1;PMS_P2;Temp;Humidity;BMP_temperature;BMP_pressure;BME280_temperature;BME280_humidity;BME280_pressure;Samples;Min_cycle;Max_cycle;Signal;HPM_P1;HPM_P2
2021/09/22 00:00:56;;;;;;;;;;;9.80;99.90;;;;;;5062482;28;20040;-61
2021/09/22 00:03:21;;;;;;;5.18;2.85;;;9.80;99.90;;;;;;5061889;28;19920;-61
2021/09/22 00:05:47;;;;;;;;;;;9.90;99.90;;;;;;5061147;28;20666;-60
2021/09/22 00:08:13;;;;;;;5.35;2.72;;;9.90;99.90;;;;;;5061135;28;20007;-60
2021/09/22 00:10:38;;;;;;;;;;;9.80;99.90;;;;;;5061840;28;20033;-61
2021/09/22 00:13:04;;;;;;;9.45;3.70;;;9.80;99.90;;;;;;5062556;28;19916;-61
2021/09/22 00:15:29;;;;;;;;;;;9.90;99.90;;;;;;5062060;28;20033;-61
2021/09/22 00:17:55;;;;;;;7.75;3.90;;;9.90;99.90;;;;;;5051398;28;19928;-62
2021/09/22 00:20:24;;;;;;;;;;;10.00;99.90;;;;;;5047283;28;20056;-62
2021/09/22 00:22:51;;;;;;;8.98;3.33;;;10.00;99.90;;;;;;5049026;28;20017;-62
2021/09/22 00:25:17;;;;;;;7.28;2.83;;;10.00;99.90;;;;;;5049394;28;20413;-63
2021/09/22 00:27:42;;;;;;;;;;;10.00;99.90;;;;;;5048163;28;20044;-63
2021/09/22 00:30:10;;;;;;;6.60;3.22;;;10.00;99.90;;;;;;5047792;28;20610;-65
2021/09/22 00:32:35;;;;;;;11.02;3.13;;;10.10;99.90;;;;;;5046745;28;20048;-63
2021/09/22 00:35:01;;;;;;;;;;;10.10;99.90;;;;;;5047408;28;20107;-62
2021/09/22 00:37:27;;;;;;;4.80;3.22;;;10.10;99.90;;;;;;5048219;28;20018;-62
2021/09/22 00:39:52;;;;;;;;;;;10.20;99.90;;;;;;5049136;28;20393;-62
2021/09/22 00:42:18;;;;;;;5.90;3.33;;;10.10;99.90;;;;;;5048965;28;20292;-62
2021/09/22 00:44:53;;;;;;;;;;;10.20;99.90;;;;;;5049876;28;20146;-62
2021/09/22 00:47:19;;;;;;;4.93;3.42;;;10.20;99.90;;;;;;5046865;28;19932;-62
2021/09/22 00:49:45;;;;;;;;;;;10.20;99.90;;;;;;5048499;28;20045;-63
2021/09/22 00:52:13;;;;;;;6.15;3.67;;;10.30;99.90;;;;;;5048478;28;19916;-62
2021/09/22 00:54:39;;;;;;;7.88;4.38;;;10.30;99.90;;;;;;5048562;28;20124;-63
2021/09/22 00:57:04;;;;;;;;;;;10.30;99.90;;;;;;5048541;28;20128;-62
2021/09/22 00:59:30;;;;;;;6.90;3.40;;;10.30;99.90;;;;;;5046012;28;20380;-62
2021/09/22 01:01:58;;;;;;;;;;;10.30;99.90;;;;;;5047000;28;20060;-63
2021/09/22 01:04:23;;;;;;;15.30;3.33;;;10.30;99.90;;;;;;5048143;28;19971;-62
2021/09/22 01:06:49;;;;;;;;;;;10.30;99.90;;;;;;5047602;28;20045;-62
2021/09/22 01:09:15;;;;;;;7.47;3.50;;;10.30;99.90;;;;;;5046812;28;19917;-62
2021/09/22 01:11:40;;;;;;;;;;;10.30;99.90;;;;;;5048530;28;20501;-62
2021/09/22 01:14:07;;;;;;;6.32;3.28;;;10.20;99.90;;;;;;5048613;28;20015;-62
2021/09/22 01:16:43;;;;;;;5.15;3.70;;;10.30;99.90;;;;;;5044406;28;20069;-63
2021/09/22 01:19:08;;;;;;;8.57;4.10;;;10.30;99.90;;;;;;5047215;28;20396;-62
2021/09/22 01:21:34;;;;;;;;;;;10.30;99.90;;;;;;5047778;28;20124;-63
2021/09/22 01:24:00;;;;;;;7.28;4.05;;;10.30;99.90;;;;;;5048000;28;19927;-61
2021/09/22 01:26:25;;;;;;;;;;;10.20;99.90;;;;;;5047197;28;20045;-62
2021/09/22 01:28:51;;;;;;;10.00;4.13;;;10.20;99.90;;;;;;5046128;28;19916;-62
2021/09/22 01:31:16;;;;;;;;;;;10.10;99.90;;;;;;5040967;28;20129;-62
2021/09/22 01:33:43;;;;;;;8.93;4.07;;;10.20;99.90;;;;;;5027439;28;20377;-63
2021/09/22 01:36:13;;;;;;;9.30;5.15;;;10.10;99.90;;;;;;5026742;28;20038;-62
2021/09/22 01:38:39;;;;;;;10.57;4.32;;;10.20;99.90;;;;;;5043503;28;20040;-63
2021/09/22 01:41:06;;;;;;;;;;;10.10;99.90;;;;;;5048035;28;20110;-63
2021/09/22 01:43:33;;;;;;;7.55;3.78;;;10.10;99.90;;;;;;5047391;28;19920;-62
2021/09/22 01:46:00;;;;;;;8.85;2.97;;;10.00;99.90;;;;;;5044951;28;20135;-63
2021/09/22 01:48:26;;;;;;;5.60;3.78;;;10.00;99.90;;;;;;5046495;28;20037;-62
2021/09/22 01:50:53;;;;;;;7.72;4.88;;;10.00;99.90;;;;;;5047327;28;20041;-62
2021/09/22 01:53:19;;;;;;;7.93;4.10;;;10.00;99.90;;;;;;5046919;28;20037;-62
2021/09/22 01:55:45;;;;;;;;;;;10.00;99.90;;;;;;5047214;28;20052;-62
2021/09/22 01:58:10;;;;;;;5.55;3.65;;;10.00;99.90;;;;;;5039726;28;19947;-60
2021/09/22 02:00:36;;;;;;;;;;;10.00;99.90;;;;;;5026796;28;20029;-63
2021/09/22 02:03:02;;;;;;;8.35;3.70;;;9.90;99.90;;;;;;5027220;28;19956;-62
2021/09/22 02:05:27;;;;;;;;;;;9.90;99.90;;;;;;5026815;28;20045;-62
2021/09/22 02:07:53;;;;;;;8.65;4.40;;;9.90;99.90;;;;;;5036986;28;19970;-62
2021/09/22 02:10:19;;;;;;;;;;;10.00;99.90;;;;;;5046368;28;20043;-63
2021/09/22 02:12:44;;;;;;;7.43;4.13;;;9.90;99.90;;;;;;5046726;28;20427;-62
2021/09/22 02:15:10;;;;;;;;;;;9.90;99.90;;;;;;5044482;28;20029;-62
2021/09/22 02:17:35;;;;;;;6.70;3.90;;;9.90;99.90;;;;;;5057455;28;19920;-62
2021/09/22 02:20:03;;;;;;;8.07;4.15;;;9.90;99.90;;;;;;5048466;28;20021;-63
2021/09/22 02:22:28;;;;;;;7.32;3.90;;;9.80;99.90;;;;;;5057607;28;20381;-63
2021/09/22 02:24:54;;;;;;;;;;;9.90;99.90;;;;;;5057244;28;20124;-63
2021/09/22 02:27:19;;;;;;;9.52;4.10;;;9.90;99.90;;;;;;5062050;28;19925;-60
2021/09/22 02:29:45;;;;;;;;;;;9.90;99.90;;;;;;5064510;28;20043;-63
2021/09/22 02:32:11;;;;;;;9.00;4.15;;;10.00;99.90;;;;;;5057922;28;19923;-62
2021/09/22 02:34:37;;;;;;;;;;;10.00;99.90;;;;;;5067385;28;20601;-63
2021/09/22 02:37:03;;;;;;;8.23;3.90;;;10.00;99.90;;;;;;5062762;28;19916;-62
2021/09/22 02:39:29;;;;;;;8.00;4.97;;;10.10;99.90;;;;;;5043992;28;20044;-63
2021/09/22 02:41:54;;;;;;;;;;;10.10;99.90;;;;;;5046808;28;20054;-62
2021/09/22 02:44:20;;;;;;;8.82;4.43;;;10.10;99.90;;;;;;5055344;28;20291;-62
2021/09/22 02:46:46;;;;;;;;;;;10.10;99.90;;;;;;5065168;28;21157;-62
2021/09/22 02:49:11;;;;;;;6.43;3.50;;;10.20;99.90;;;;;;5064990;28;19916;-64
2021/09/22 02:51:37;;;;;;;;;;;10.20;99.90;;;;;;5066250;28;20068;-62
2021/09/22 02:54:03;;;;;;;6.97;4.05;;;10.30;99.90;;;;;;5066470;28;19916;-62
2021/09/22 02:56:28;;;;;;;;;;;10.20;99.90;;;;;;5065963;28;20400;-62
2021/09/22 02:58:54;;;;;;;6.35;3.72;;;10.20;99.90;;;;;;5053028;28;19917;-61
2021/09/22 03:01:20;;;;;;;;;;;10.30;99.90;;;;;;5046224;28;20037;-61
2021/09/22 03:03:46;;;;;;;7.18;3.40;;;10.30;99.90;;;;;;5045636;28;19917;-62
2021/09/22 03:06:11;;;;;;;;;;;10.30;99.90;;;;;;5053449;28;20083;-62
2021/09/22 03:08:38;;;;;;;8.02;4.10;;;10.30;99.90;;;;;;5044823;28;19999;-62
2021/09/22 03:11:06;;;;;;;12.00;4.03;;;10.30;99.90;;;;;;5046508;28;20049;-62
2021/09/22 03:13:33;;;;;;;6.88;3.90;;;10.30;99.90;;;;;;5045322;28;20388;-62
2021/09/22 03:15:59;;;;;;;10.05;4.15;;;10.30;99.90;;;;;;5044802;28;20495;-61
2021/09/22 03:18:25;;;;;;;9.27;3.88;;;10.40;99.90;;;;;;5045312;28;20543;-63
2021/09/22 03:20:51;;;;;;;;;;;10.40;99.90;;;;;;5045887;28;20112;-62
2021/09/22 03:23:17;;;;;;;11.63;3.95;;;10.40;99.90;;;;;;5046313;28;19924;-62
2021/09/22 03:25:42;;;;;;;;;;;10.40;99.90;;;;;;5044411;28;20056;-63
2021/09/22 03:28:07;;;;;;;;;;;10.50;99.90;;;;;;5034535;28;19948;-63
2021/09/22 03:30:33;;;;;;;;;;;10.50;99.90;;;;;;5046031;28;19913;-63
2021/09/22 03:32:58;;;;;;;;;;;10.40;99.90;;;;;;5046396;28;19927;-63
2021/09/22 03:35:24;;;;;;;;;;;10.50;99.90;;;;;;5046657;28;19920;-63
2021/09/22 03:37:49;;;;;;;;;;;10.50;99.90;;;;;;5044795;28;19923;-62
2021/09/22 03:40:15;;;;;;;;;;;10.50;99.90;;;;;;5044653;28;19923;-63
2021/09/22 03:42:41;;;;;;;;;;;10.50;99.90;;;;;;5045884;28;19928;-62
2021/09/22 03:45:06;;;;;;;;;;;10.60;99.90;;;;;;5046543;28;20273;-63
2021/09/22 03:47:32;;;;;;;;;;;10.60;99.90;;;;;;5045333;28;20444;-63
2021/09/22 03:49:58;;;;;;;;;;;10.60;99.90;;;;;;5046037;28;20005;-63
2021/09/22 03:52:23;;;;;;;;;;;10.70;99.90;;;;;;5047061;28;19916;-63
2021/09/22 03:54:49;;;;;;;;;;;10.70;99.90;;;;;;5046619;28;20012;-62
2021/09/22 03:57:15;;;;;;;;;;;10.70;99.90;;;;;;5039014;28;20300;-62
2021/09/22 03:59:40;;;;;;;;;;;10.60;99.90;;;;;;5049748;28;19921;-62
2021/09/22 04:02:06;;;;;;;;;;;10.70;99.90;;;;;;5049649;28;20365;-63
2021/09/22 04:04:31;;;;;;;;;;;10.70;99.90;;;;;;5049925;28;19920;-61
2021/09/22 04:06:58;;;;;;;;;;;10.70;99.90;;;;;;5048536;28;19968;-62
2021/09/22 04:09:23;;;;;;;;;;;10.70;99.90;;;;;;5048972;28;19921;-62
2021/09/22 04:11:49;;;;;;;;;;;10.70;99.90;;;;;;5065471;28;19923;-63
2021/09/22 04:14:14;;;;;;;;;;;10.70;99.90;;;;;;5049304;28;19970;-62
2021/09/22 04:16:40;;;;;;;;;;;10.70;99.90;;;;;;5048458;28;20262;-62
2021/09/22 04:19:05;;;;;;;;;;;10.80;99.90;;;;;;5048901;28;20446;-62
2021/09/22 04:21:31;;;;;;;;;;;10.70;99.90;;;;;;5064264;28;20372;-63
2021/09/22 04:23:57;;;;;;;;;;;10.80;99.90;;;;;;5049650;28;19978;-63
2021/09/22 04:26:23;;;;;;;;;;;10.80;99.90;;;;;;5048837;28;19944;-63
2021/09/22 04:28:48;;;;;;;;;;;10.80;99.90;;;;;;5048417;28;20404;-63
2021/09/22 04:31:14;;;;;;;;;;;10.80;99.90;;;;;;5048477;28;19924;-62
2021/09/22 04:33:39;;;;;;;;;;;10.90;99.90;;;;;;5049646;28;19923;-62
2021/09/22 04:36:05;;;;;;;;;;;10.90;99.90;;;;;;5048732;28;19916;-63
2021/09/22 04:38:30;;;;;;;;;;;10.90;99.90;;;;;;5048658;28;19917;-62
2021/09/22 04:40:55;;;;;;;;;;;10.90;99.90;;;;;;5049845;28;19920;-62
2021/09/22 04:43:21;;;;;;;;;;;10.90;99.90;;;;;;5049422;28;20007;-62
2021/09/22 04:45:47;;;;;;;;;;;11.00;99.90;;;;;;5048537;28;19955;-62
2021/09/22 04:48:13;;;;;;;;;;;11.00;99.90;;;;;;5048654;28;20011;-62
2021/09/22 04:50:39;;;;;;;;;;;11.00;99.90;;;;;;5048636;28;20024;-62
2021/09/22 04:53:05;;;;;;;;;;;11.00;99.90;;;;;;5048996;28;19969;-62
2021/09/22 04:55:30;;;;;;;;;;;11.00;99.90;;;;;;5048389;28;19921;-62
2021/09/22 04:57:56;;;;;;;;;;;11.00;99.90;;;;;;5047259;28;19920;-63
2021/09/22 05:00:21;;;;;;;;;;;11.00;99.90;;;;;;5048287;28;20417;-62
2021/09/22 05:02:47;;;;;;;;;;;11.00;99.90;;;;;;5048566;28;19921;-62
2021/09/22 05:05:13;;;;;;;;;;;11.10;99.90;;;;;;5048382;28;20003;-67
2021/09/22 05:07:39;;;;;;;;;;;11.10;99.90;;;;;;5045691;28;20073;-62
2021/09/22 05:10:04;;;;;;;;;;;11.10;99.90;;;;;;5048244;28;20019;-63
2021/09/22 05:12:30;;;;;;;;;;;11.10;99.90;;;;;;5048048;28;20073;-63
2021/09/22 05:14:55;;;;;;;;;;;11.00;99.90;;;;;;5048509;28;20500;-62
2021/09/22 05:17:21;;;;;;;;;;;11.00;99.90;;;;;;5046879;28;20415;-62
2021/09/22 05:19:46;;;;;;;;;;;11.00;99.90;;;;;;5047772;28;19927;-63
2021/09/22 05:22:15;;;;;;;;;;;11.00;99.90;;;;;;5048436;28;20402;-62
2021/09/22 05:24:41;;;;;;;;;;;11.00;99.90;;;;;;5048066;28;19917;-62
2021/09/22 05:27:08;;;;;;;;;;;11.00;99.90;;;;;;5047870;28;19921;-62
2021/09/22 05:29:34;;;;;;;;;;;11.00;99.90;;;;;;5046397;28;20020;-63
2021/09/22 05:31:59;;;;;;;;;;;11.10;99.90;;;;;;5047335;28;19920;-61
2021/09/22 05:34:25;;;;;;;;;;;11.10;99.90;;;;;;5047823;28;19923;-62
2021/09/22 05:36:50;;;;;;;;;;;11.10;99.90;;;;;;5033610;28;20000;-62
2021/09/22 05:39:16;;;;;;;;;;;11.10;99.90;;;;;;5046057;28;19921;-62
2021/09/22 05:41:41;;;;;;;;;;;11.10;99.90;;;;;;5062219;28;19916;-61
2021/09/22 05:44:07;;;;;;;;;;;11.20;99.90;;;;;;5047419;28;19916;-62
2021/09/22 05:46:33;;;;;;;;;;;11.20;99.90;;;;;;5046439;28;20583;-62
2021/09/22 05:48:58;;;;;;;;;;;11.20;99.90;;;;;;5045201;28;19921;-62
2021/09/22 05:51:24;;;;;;;;;;;11.20;99.90;;;;;;5037459;28;19924;-62
2021/09/22 05:53:50;;;;;;;;;;;11.20;99.90;;;;;;5027956;28;20530;-62
2021/09/22 05:56:15;;;;;;;;;;;11.20;99.90;;;;;;5027643;28;20312;-62
2021/09/22 05:58:41;;;;;;;;;;;11.20;99.90;;;;;;5034830;28;19916;-61
2021/09/22 06:01:06;;;;;;;;;;;11.30;99.90;;;;;;5043320;28;19920;-62
2021/09/22 06:03:32;;;;;;;;;;;11.30;99.90;;;;;;5048004;28;20289;-62
2021/09/22 06:05:57;;;;;;;;;;;11.30;99.90;;;;;;5046000;28;19974;-62
2021/09/22 06:08:23;;;;;;;;;;;11.30;99.90;;;;;;5045324;28;19917;-63
2021/09/22 06:10:48;;;;;;;;;;;11.30;99.90;;;;;;5047202;28;20653;-62
2021/09/22 06:13:14;;;;;;;;;;;11.30;99.90;;;;;;5047621;28;20284;-62
2021/09/22 06:15:39;;;;;;;;;;;11.40;99.90;;;;;;5046412;28;19924;-63
2021/09/22 06:18:05;;;;;;;;;;;11.40;99.90;;;;;;5046880;28;19971;-62
2021/09/22 06:20:30;;;;;;;;;;;11.40;99.90;;;;;;5047525;28;20076;-62
2021/09/22 06:22:56;;;;;;;;;;;11.50;99.90;;;;;;5047749;28;19921;-62
2021/09/22 06:25:22;;;;;;;;;;;11.50;99.90;;;;;;5047465;28;19924;-62
2021/09/22 06:27:48;;;;;;;;;;;11.60;99.90;;;;;;5046036;28;19978;-62
2021/09/22 06:30:13;;;;;;;;;;;11.60;99.90;;;;;;5047295;28;19920;-62
2021/09/22 06:32:39;;;;;;;;;;;11.60;99.90;;;;;;5047196;28;20300;-62
2021/09/22 06:35:06;;;;;;;;;;;11.60;99.90;;;;;;5047126;28;20374;-62
2021/09/22 06:37:31;;;;;;;;;;;11.60;99.90;;;;;;5046140;28;19925;-62
2021/09/22 06:39:57;;;;;;;;;;;11.70;99.90;;;;;;5046314;28;19919;-62
2021/09/22 06:42:23;;;;;;;;;;;11.70;99.90;;;;;;5046836;28;20443;-62
2021/09/22 06:44:48;;;;;;;;;;;11.70;99.90;;;;;;5047660;28;20492;-62
2021/09/22 06:47:13;;;;;;;;;;;11.70;99.90;;;;;;5045309;28;19928;-62
2021/09/22 06:49:39;;;;;;;;;;;11.70;99.90;;;;;;5046580;28;19916;-62
2021/09/22 06:52:04;;;;;;;;;;;11.70;99.90;;;;;;5046724;28;20007;-62
2021/09/22 06:54:32;;;;;;;;;;;11.70;99.90;;;;;;5046031;28;19923;-62
2021/09/22 06:56:58;;;;;;;;;;;11.70;99.90;;;;;;5046533;28;19917;-62
2021/09/22 06:59:23;;;;;;;;;;;11.70;99.90;;;;;;5046224;28;19921;-62
2021/09/22 07:01:49;;;;;;;;;;;11.70;99.90;;;;;;5046468;28;19959;-62
2021/09/22 07:04:14;;;;;;;;;;;11.70;99.90;;;;;;5046423;28;19916;-62
2021/09/22 07:06:40;;;;;;;;;;;11.70;99.90;;;;;;5045424;28;19925;-64
2021/09/22 07:09:05;;;;;;;;;;;11.70;99.90;;;;;;5046084;28;20350;-63
2021/09/22 07:11:30;;;;;;;;;;;11.70;99.90;;;;;;5043976;28;20027;-64
2021/09/22 07:13:56;;;;;;;;;;;11.60;99.90;;;;;;5027359;28;20446;-65
2021/09/22 07:16:22;;;;;;;;;;;11.60;99.90;;;;;;5041070;28;20375;-64
2021/09/22 07:18:47;;;;;;;;;;;11.60;99.90;;;;;;5026556;28;20368;-63
2021/09/22 07:21:14;;;;;;;;;;;11.60;99.90;;;;;;5026912;28;19925;-64
2021/09/22 07:23:40;;;;;;;;;;;11.60;99.90;;;;;;5027447;28;19917;-63
2021/09/22 07:26:06;;;;;;;;;;;11.60;99.90;;;;;;5041694;28;20713;-61
2021/09/22 07:28:33;;;;;;;;;;;11.60;99.90;;;;;;5059398;28;20623;-62
2021/09/22 07:30:58;;;;;;;;;;;11.70;99.90;;;;;;5065485;28;20405;-62
2021/09/22 07:33:24;;;;;;;;;;;11.70;99.90;;;;;;5068938;28;19920;-62
2021/09/22 07:35:50;;;;;;;;;;;11.70;99.90;;;;;;5037637;28;19999;-64
2021/09/22 07:38:16;;;;;;;;;;;11.70;99.90;;;;;;5044825;28;19960;-63
2021/09/22 07:40:42;;;;;;;;;;;11.70;99.90;;;;;;5066217;28;19917;-63
2021/09/22 07:43:08;;;;;;;;;;;11.70;99.90;;;;;;5049772;28;19999;-62
2021/09/22 07:45:33;;;;;;;;;;;11.70;99.90;;;;;;5049659;28;20039;-62
2021/09/22 07:47:59;;;;;;;;;;;11.70;99.90;;;;;;5049688;28;19923;-63
2021/09/22 07:50:24;;;;;;;;;;;11.70;99.90;;;;;;5049171;28;19925;-63
2021/09/22 07:52:50;;;;;;;;;;;11.70;99.90;;;;;;5049645;28;19989;-63
2021/09/22 07:55:15;;;;;;;;;;;11.80;99.90;;;;;;5041110;28;20008;-62
2021/09/22 07:57:41;;;;;;;;;;;11.80;99.90;;;;;;5048569;28;19916;-63
2021/09/22 08:00:07;;;;;;;;;;;11.70;99.90;;;;;;5050320;28;19916;-63
2021/09/22 08:02:33;;;;;;;;;;;11.80;99.90;;;;;;5049197;28;19920;-63
2021/09/22 08:04:58;;;;;;;;;;;11.80;99.90;;;;;;5048909;28;20284;-62
2021/09/22 08:07:24;;;;;;;;;;;11.80;99.90;;;;;;5047589;28;19925;-63
2021/09/22 08:09:49;;;;;;;;;;;11.90;99.90;;;;;;5049351;28;20008;-62
2021/09/22 08:12:15;;;;;;;;;;;11.90;99.90;;;;;;5049944;28;19917;-62
2021/09/22 08:14:40;;;;;;;;;;;11.90;99.90;;;;;;5050296;28;19924;-62
2021/09/22 08:17:06;;;;;;;;;;;12.00;99.90;;;;;;5048496;28;19924;-63
2021/09/22 08:19:33;;;;;;;;;;;12.10;99.90;;;;;;5049434;28;19927;-62
2021/09/22 08:21:59;;;;;;;;;;;12.20;99.90;;;;;;5049663;28;19920;-63
2021/09/22 08:24:24;;;;;;;;;;;12.30;99.90;;;;;;5049946;28;19920;-63
2021/09/22 08:26:52;;;;;;;;;;;12.20;99.90;;;;;;5048450;28;20082;-63
2021/09/22 08:29:18;;;;;;;;;;;12.30;99.90;;;;;;5049295;28;19924;-63
2021/09/22 08:31:44;;;;;;;;;;;12.40;99.90;;;;;;5049068;28;20063;-63
2021/09/22 08:34:09;;;;;;;;;;;12.40;99.90;;;;;;5049636;28;20025;-62
2021/09/22 08:36:35;;;;;;;;;;;12.50;99.90;;;;;;5048646;28;19917;-63
2021/09/22 08:39:00;;;;;;;;;;;12.50;99.90;;;;;;5048030;28;19924;-62
2021/09/22 08:41:26;;;;;;;;;;;12.70;99.90;;;;;;5049870;28;20447;-62
2021/09/22 08:43:51;;;;;;;;;;;12.70;99.90;;;;;;5048249;28;19917;-63
2021/09/22 08:46:18;;;;;;;;;;;12.80;99.90;;;;;;5047918;28;19924;-63
2021/09/22 08:48:44;;;;;;;;;;;12.90;99.90;;;;;;5044319;28;20683;-63
2021/09/22 08:51:10;;;;;;;;;;;13.10;99.90;;;;;;5044950;28;20273;-63
2021/09/22 08:53:35;;;;;;;;;;;13.30;99.90;;;;;;5049143;28;19917;-63
2021/09/22 08:56:02;;;;;;;;;;;13.30;99.90;;;;;;5048139;28;20024;-63
2021/09/22 08:58:28;;;;;;;;;;;13.30;99.90;;;;;;5046363;28;20321;-63
2021/09/22 09:00:53;;;;;;;;;;;13.30;99.90;;;;;;5047993;28;20319;-62
2021/09/22 09:03:35;;;;;;;;;;;13.20;99.90;;;;;;5048456;28;19921;-63
2021/09/22 09:06:22;;;;;;;;;;;13.10;99.90;;;;;;5048123;28;20303;-63
2021/09/22 09:08:48;;;;;;;;;;;13.10;99.90;;;;;;5048383;28;19924;-63
2021/09/22 09:11:13;;;;;;;;;;;13.00;99.90;;;;;;5049041;28;20372;-63
2021/09/22 09:13:46;;;;;;;;;;;13.10;99.90;;;;;;5049170;28;19920;-63
2021/09/22 09:16:17;;;;;;;;;;;13.20;99.90;;;;;;5047921;28;20376;-63
2021/09/22 09:18:43;;;;;;;;;;;13.20;99.90;;;;;;5048234;28;20007;-63
2021/09/22 09:21:09;;;;;;;;;;;13.20;99.90;;;;;;5048547;28;19917;-63
2021/09/22 09:23:34;;;;;;;;;;;13.30;99.90;;;;;;5048812;28;20054;-63
2021/09/22 09:26:03;;;;;;;;;;;13.30;99.90;;;;;;5047885;28;19971;-63
2021/09/22 09:28:30;;;;;;;;;;;13.40;99.90;;;;;;5046538;28;19948;-63
2021/09/22 09:30:57;;;;;;;;;;;13.50;99.90;;;;;;5048212;28;19925;-62
2021/09/22 09:33:36;;;;;;;;;;;13.60;99.90;;;;;;5046373;28;19916;-64
2021/09/22 09:36:20;;;;;;;;;;;13.70;99.90;;;;;;5042680;28;20403;-62
2021/09/22 09:39:23;;;;;;;;;;;13.80;99.90;;;;;;5041534;28;20403;-63
2021/09/22 09:41:51;;;;;;;;;;;14.10;99.90;;;;;;5042465;28;20362;-63
2021/09/22 09:44:23;;;;;;;;;;;14.50;99.90;;;;;;5056110;28;20008;-63
2021/09/22 09:46:53;;;;;;;;;;;14.60;99.90;;;;;;5045232;28;20011;-63
2021/09/22 09:49:27;;;;;;;;;;;14.60;99.90;;;;;;5029987;28;20451;-62
2021/09/22 09:51:56;;;;;;;;;;;14.50;99.90;;;;;;5027133;28;19999;-62
2021/09/22 09:54:24;;;;;;;;;;;14.40;99.90;;;;;;5026648;28;20187;-62
2021/09/22 09:56:51;;;;;;;;;;;14.50;99.90;;;;;;5026424;28;19983;-62
2021/09/22 09:59:18;;;;;;;;;;;14.60;99.90;;;;;;5041794;28;20376;-63
2021/09/22 10:01:48;;;;;;;;;;;14.70;99.90;;;;;;5046443;28;19920;-63
2021/09/22 10:04:18;;;;;;;;;;;14.70;99.90;;;;;;5038831;28;19921;-62
2021/09/22 10:06:44;;;;;;;;;;;14.90;99.90;;;;;;5027349;28;19925;-60
2021/09/22 10:09:10;;;;;;;;;;;15.00;99.90;;;;;;5046869;28;19951;-63
2021/09/22 10:11:37;;;;;;;;;;;15.00;99.90;;;;;;5038483;28;19916;-63
2021/09/22 10:14:04;;;;;;;;;;;15.20;99.90;;;;;;5047485;28;19917;-63
2021/09/22 10:16:31;;;;;;;;;;;15.10;99.90;;;;;;5046283;28;19943;-63
2021/09/22 10:18:56;;;;;;;;;;;15.20;99.90;;;;;;5047044;28;19975;-63
2021/09/22 10:21:22;;;;;;;;;;;15.30;99.90;;;;;;5047732;28;20431;-63
2021/09/22 10:23:50;;;;;;;;;;;15.40;99.90;;;;;;5047359;28;19917;-63
2021/09/22 10:26:16;;;;;;;;;;;15.50;99.90;;;;;;5045438;28;19925;-63
2021/09/22 10:28:42;;;;;;;;;;;15.60;99.90;;;;;;5039241;28;19975;-63
2021/09/22 10:31:33;;;;;;;;;;;15.70;99.90;;;;;;5047118;28;19917;-63
2021/09/22 10:33:59;;;;;;;;;;;15.60;99.90;;;;;;5047580;28;19917;-63
2021/09/22 10:36:33;;;;;;;;;;;15.60;99.90;;;;;;5046786;28;19917;-63
2021/09/22 10:38:59;;;;;;;;;;;15.60;99.90;;;;;;5046450;28;19947;-63
2021/09/22 10:41:26;;;;;;;;;;;15.70;99.90;;;;;;5046244;28;20632;-63
2021/09/22 10:43:52;;;;;;;;;;;15.80;99.90;;;;;;5052266;22;20015;-63
2021/09/22 10:46:19;;;;;;;;;;;15.80;99.90;;;;;;5048218;28;19921;-63
2021/09/22 10:48:51;;;;;;;;;;;15.80;99.90;;;;;;5046480;28;19923;-62
2021/09/22 10:51:30;;;;;;;;;;;15.90;99.90;;;;;;5027391;28;19925;-63
2021/09/22 10:54:31;;;;;;;;;;;15.90;99.90;;;;;;5028121;28;20420;-62
2021/09/22 10:56:58;;;;;;;;;;;16.00;99.90;;;;;;5004139;28;19924;-63
2021/09/22 10:59:31;;;;;;;;;;;16.20;99.90;;;;;;5021688;28;19952;-63
2021/09/22 11:01:56;;;;;;;;;;;16.10;99.80;;;;;;5027102;28;19924;-63
2021/09/22 11:04:24;;;;;;;;;;;16.20;99.90;;;;;;5027438;28;20290;-62
2021/09/22 11:06:50;;;;;;;;;;;16.30;99.90;;;;;;5024885;28;20384;-63
2021/09/22 11:09:23;;;;;;;;;;;16.40;99.90;;;;;;5025505;28;19924;-63
2021/09/22 11:12:01;;;;;;;;;;;16.40;99.70;;;;;;5027196;28;19917;-63
2021/09/22 11:14:33;;;;;;;;;;;16.40;99.40;;;;;;5027335;28;19920;-61
2021/09/22 11:16:59;;;;;;;;;;;16.50;99.10;;;;;;5025886;28;19917;-63
2021/09/22 11:19:25;;;;;;;;;;;16.50;99.90;;;;;;5026623;28;19978;-62
2021/09/22 11:21:50;;;;;;;;;;;16.50;98.10;;;;;;5026817;28;19974;-63
2021/09/22 11:24:23;;;;;;;;;;;16.60;99.90;;;;;;5025936;28;20355;-62
2021/09/22 11:26:49;;;;;;;;;;;16.80;99.90;;;;;;5025607;28;19921;-63
2021/09/22 11:29:28;;;;;;;;;;;16.80;98.90;;;;;;5025724;28;19917;-63
2021/09/22 11:31:54;;;;;;;;;;;16.80;99.20;;;;;;5024931;28;20016;-63
2021/09/22 11:34:24;;;;;;;;;;;16.90;99.40;;;;;;5026368;28;20444;-63
2021/09/22 11:37:06;;;;;;;;;;;17.10;99.50;;;;;;5037884;28;19921;-63
2021/09/22 11:39:32;;;;;;;;;;;17.10;99.30;;;;;;5023259;28;19921;-63
2021/09/22 11:41:58;;;;;;;;;;;17.30;99.20;;;;;;5025618;28;20480;-63
2021/09/22 11:44:30;;;;;;;;;;;17.40;98.20;;;;;;5024789;28;19916;-64
2021/09/22 11:47:03;;;;;;;;;;;17.40;98.20;;;;;;5024211;28;19924;-63
2021/09/22 11:49:33;;;;;;;;;;;17.30;99.60;;;;;;5024628;28;19924;-63
2021/09/22 11:52:13;;;;;;;;;;;17.20;98.80;;;;;;5025079;28;19928;-63
2021/09/22 11:54:45;;;;;;;;;;;17.00;99.00;;;;;;5025261;28;19928;-63
2021/09/22 11:57:12;;;;;;;;;;;17.00;98.70;;;;;;5023208;28;19952;-63
2021/09/22 11:59:38;;;;;;;;;;;17.00;99.20;;;;;;5024932;28;19917;-63
2021/09/22 12:02:03;;;;;;;;;;;17.00;99.40;;;;;;5024999;28;19921;-63
2021/09/22 12:04:37;;;;;;;;;;;17.00;99.00;;;;;;5026252;28;20003;-63
2021/09/22 12:07:07;;;;;;;;;;;17.00;99.10;;;;;;5024812;28;19983;-63
2021/09/22 12:09:40;;;;;;;;;;;17.10;98.20;;;;;;5026160;28;19928;-63
2021/09/22 12:12:14;;;;;;;;;;;17.00;98.30;;;;;;5021338;28;19959;-63
2021/09/22 12:14:49;;;;;;;;;;;17.00;97.70;;;;;;5032098;28;20475;-64
2021/09/22 12:17:16;;;;;;;;;;;17.10;98.20;;;;;;5027055;28;19917;-65
2021/09/22 12:19:42;;;;;;;;;;;17.40;98.70;;;;;;5033398;28;20506;-64
2021/09/22 12:22:08;;;;;;;;;;;17.40;98.40;;;;;;5029191;28;19964;-64
2021/09/22 12:24:36;;;;;;;;;;;17.50;98.80;;;;;;5030334;28;19963;-64
2021/09/22 12:27:01;;;;;;;;;;;17.30;98.10;;;;;;5028318;28;20012;-64
2021/09/22 12:29:27;;;;;;;;;;;17.30;98.80;;;;;;5028314;28;20040;-65
2021/09/22 12:31:53;;;;;;;;;;;17.40;98.50;;;;;;5028948;28;19952;-65
2021/09/22 12:34:19;;;;;;;;;;;17.50;97.70;;;;;;5029715;28;20270;-64
2021/09/22 12:36:45;;;;;;;;;;;17.60;96.30;;;;;;5028591;28;19923;-63
2021/09/22 12:39:18;;;;;;;;;;;17.70;96.00;;;;;;5028489;28;20011;-64
2021/09/22 12:42:00;;;;;;;;;;;17.60;95.80;;;;;;5010007;28;19925;-64
2021/09/22 12:44:25;;;;;;;;;;;17.70;96.60;;;;;;5009832;28;19917;-64
2021/09/22 12:46:51;;;;;;;;;;;17.70;97.90;;;;;;5022838;28;19929;-64
2021/09/22 12:49:19;;;;;;;;;;;17.40;97.40;;;;;;5010256;28;20506;-64
2021/09/22 12:51:46;;;;;;;;;;;17.50;98.20;;;;;;5025712;28;20420;-64
2021/09/22 12:54:12;;;;;;;;;;;17.70;97.60;;;;;;5031269;28;19986;-64
2021/09/22 12:56:38;;;;;;;;;;;17.70;97.90;;;;;;5028672;28;19924;-63
2021/09/22 12:59:25;;;;;;;;;;;17.50;98.30;;;;;;5014360;28;19921;-65
2021/09/22 13:01:51;;;;;;;;;;;17.30;98.50;;;;;;5029158;28;19917;-64
2021/09/22 13:04:21;;;;;;;;;;;17.40;98.50;;;;;;5044573;28;20650;-65
2021/09/22 13:06:54;;;;;;;;;;;17.40;97.90;;;;;;5027823;28;19921;-64
2021/09/22 13:09:30;;;;;;;;;;;17.20;98.50;;;;;;5028335;28;19948;-63
2021/09/22 13:11:55;;;;;;;;;;;17.20;98.90;;;;;;5029404;28;20039;-64
2021/09/22 13:14:21;;;;;;;;;;;17.20;98.50;;;;;;5045296;28;20453;-65
2021/09/22 13:16:55;;;;;;;;;;;17.30;98.50;;;;;;5027694;28;19916;-65
2021/09/22 13:19:22;;;;;;;;;;;17.40;98.20;;;;;;5028671;28;19924;-64
2021/09/22 13:21:47;;;;;;;;;;;17.30;98.10;;;;;;5028466;28;19917;-64
2021/09/22 13:24:15;;;;;;;;;;;17.40;99.00;;;;;;5029438;28;19924;-65
2021/09/22 13:26:41;;;;;;;;;;;17.40;98.80;;;;;;5029896;28;19967;-64
2021/09/22 13:29:07;;;;;;;;;;;17.40;98.20;;;;;;5026795;28;19923;-64
2021/09/22 13:31:34;;;;;;;;;;;17.20;98.50;;;;;;5027810;28;19963;-65
2021/09/22 13:34:00;;;;;;;;;;;17.10;98.60;;;;;;5020535;28;19921;-64
2021/09/22 13:36:26;;;;;;;;;;;17.20;98.40;;;;;;5027329;28;20332;-65
2021/09/22 13:38:53;;;;;;;;;;;17.20;98.40;;;;;;5027886;28;19952;-65
2021/09/22 13:41:18;;;;;;;;;;;17.20;98.60;;;;;;5027866;28;20498;-65
2021/09/22 13:43:44;;;;;;;;;;;17.30;98.70;;;;;;5017126;28;19929;-65
2021/09/22 13:46:09;;;;;;;;;;;17.10;98.10;;;;;;5008289;28;20365;-64
2021/09/22 13:48:35;;;;;;;;;;;17.10;97.30;;;;;;5007516;28;19940;-64
2021/09/22 13:51:01;;;;;;;;;;;17.00;98.60;;;;;;5009173;28;19917;-64
2021/09/22 13:53:27;;;;;;;;;;;16.90;98.20;;;;;;5008510;28;19917;-64
2021/09/22 13:55:52;;;;;;;;;;;17.00;99.00;;;;;;5008627;28;19920;-64
2021/09/22 13:58:18;;;;;;;;;;;17.00;99.40;;;;;;5014376;28;19985;-64
2021/09/22 14:00:43;;;;;;;;;;;17.00;99.10;;;;;;5028284;28;19975;-64
2021/09/22 14:03:10;;;;;;;;;;;17.00;98.90;;;;;;5028308;28;19917;-64